createdAt,value
2019-01-15T00:00:15.914Z,1.60
2019-01-15T00:02:48.364Z,1.59
2019-01-15T00:05:20.678Z,1.59
2019-01-15T00:07:52.539Z,1.59
2019-01-15T00:10:24.838Z,1.60
2019-01-15T00:12:57.159Z,1.65
2019-01-15T00:15:29.883Z,1.62
2019-01-15T00:18:01.906Z,1.66
2019-01-15T00:20:35.246Z,1.65
2019-01-15T00:23:07.406Z,1.63
2019-01-15T00:25:39.156Z,1.62
2019-01-15T00:28:11.470Z,1.66
2019-01-15T00:30:43.757Z,1.64
2019-01-15T00:33:16.207Z,1.63
2019-01-15T00:35:48.509Z,1.65
2019-01-15T00:38:20.903Z,1.63
2019-01-15T00:40:52.632Z,1.62
2019-01-15T00:43:24.402Z,1.62
2019-01-15T00:45:56.147Z,1.62
2019-01-15T00:48:27.897Z,1.62
2019-01-15T00:51:00.272Z,1.60
2019-01-15T00:53:32.870Z,1.62
2019-01-15T00:56:04.706Z,1.63
2019-01-15T00:58:37.013Z,1.60
2019-01-15T01:01:08.749Z,1.57
2019-01-15T01:03:40.526Z,1.59
2019-01-15T01:06:12.809Z,1.58
2019-01-15T01:08:44.560Z,1.57
2019-01-15T01:11:17.021Z,1.56
2019-01-15T01:13:50.437Z,1.56
2019-01-15T01:16:22.496Z,1.56
2019-01-15T01:18:54.924Z,1.55
2019-01-15T01:21:27.281Z,1.55
2019-01-15T01:23:59.739Z,1.59
2019-01-15T01:26:31.481Z,1.53
2019-01-15T01:29:03.796Z,1.54
2019-01-15T01:31:36.167Z,1.57
2019-01-15T01:34:08.489Z,1.54
2019-01-15T01:36:40.941Z,1.53
2019-01-15T01:39:13.261Z,1.53
2019-01-15T01:41:45.560Z,1.55
2019-01-15T01:44:17.981Z,1.55
2019-01-15T01:46:50.354Z,1.55
2019-01-15T01:49:23.024Z,1.53
2019-01-15T01:51:55.043Z,1.55
2019-01-15T01:54:27.360Z,1.54
2019-01-15T01:56:59.687Z,1.57
2019-01-15T01:59:31.990Z,1.55
2019-01-15T02:02:04.656Z,1.58
2019-01-15T02:04:36.390Z,1.59
2019-01-15T02:07:08.201Z,1.56
2019-01-15T02:09:40.882Z,1.58
2019-01-15T02:12:12.636Z,1.58
2019-01-15T02:14:45.039Z,1.57
2019-01-15T02:17:17.489Z,1.54
2019-01-15T02:19:49.792Z,1.56
2019-01-15T02:22:22.108Z,1.56
2019-01-15T02:24:54.426Z,1.54
2019-01-15T02:27:27.125Z,1.55
2019-01-15T02:29:58.867Z,1.55
2019-01-15T02:32:31.185Z,1.57
2019-01-15T02:35:03.724Z,1.54
2019-01-15T02:37:35.476Z,1.55
2019-01-15T02:40:09.595Z,1.54
2019-01-15T02:42:46.791Z,1.52
2019-01-15T02:45:18.170Z,1.52
2019-01-15T02:47:50.534Z,1.49
2019-01-15T02:50:23.423Z,1.47
2019-01-15T02:52:55.535Z,1.51
2019-01-15T02:55:27.793Z,1.49
2019-01-15T02:58:00.165Z,1.48
2019-01-15T03:00:32.483Z,1.51
2019-01-15T03:03:04.789Z,1.47
2019-01-15T03:05:37.093Z,1.45
2019-01-15T03:08:09.413Z,1.46
2019-01-15T03:10:41.880Z,1.43
2019-01-15T03:13:14.192Z,1.44
2019-01-15T03:15:46.475Z,1.39
2019-01-15T03:18:18.789Z,1.42
2019-01-15T03:20:51.091Z,1.42
2019-01-15T03:23:23.509Z,1.38
2019-01-15T03:25:55.800Z,1.36
2019-01-15T03:28:28.210Z,1.36
2019-01-15T03:31:00.634Z,1.35
2019-01-15T03:33:33.004Z,1.31
2019-01-15T03:36:05.408Z,1.36
2019-01-15T03:38:37.740Z,1.32
2019-01-15T03:41:10.060Z,1.31
2019-01-15T03:43:42.391Z,1.34
2019-01-15T03:46:14.697Z,1.33
2019-01-15T03:48:47.485Z,1.38
2019-01-15T03:51:19.487Z,1.31
2019-01-15T03:53:51.821Z,1.30
2019-01-15T03:56:24.219Z,1.26
2019-01-15T03:58:56.533Z,1.26
2019-01-15T04:01:28.833Z,1.28
2019-01-15T04:04:01.481Z,1.29
2019-01-15T04:06:33.233Z,1.29
2019-01-15T04:09:07.555Z,1.25
2019-01-15T04:11:39.934Z,1.24
2019-01-15T04:14:12.269Z,1.23
2019-01-15T04:16:44.563Z,1.23
2019-01-15T04:19:16.881Z,1.22
2019-01-15T04:21:49.194Z,1.22
2019-01-15T04:24:21.959Z,1.19
2019-01-15T04:26:53.691Z,1.21
2019-01-15T04:29:26.038Z,1.23
2019-01-15T04:31:58.780Z,1.23
2019-01-15T04:34:30.534Z,1.20
2019-01-15T04:37:02.271Z,1.22
2019-01-15T04:39:34.580Z,1.21
2019-01-15T04:42:06.882Z,1.25
2019-01-15T04:44:39.205Z,1.19
2019-01-15T04:47:11.525Z,1.22
2019-01-15T04:49:43.922Z,1.20
2019-01-15T04:52:16.526Z,1.21
2019-01-15T04:54:48.949Z,1.21
2019-01-15T04:57:20.956Z,1.17
2019-01-15T04:59:53.455Z,1.19
2019-01-15T05:02:25.213Z,1.17
2019-01-15T05:04:57.851Z,1.23
2019-01-15T05:07:29.594Z,1.19
2019-01-15T05:10:01.931Z,1.21
2019-01-15T05:12:33.756Z,1.20
2019-01-15T05:15:07.985Z,1.19
2019-01-15T05:17:40.307Z,1.21
2019-01-15T05:20:14.039Z,1.19
2019-01-15T05:22:45.784Z,1.20
2019-01-15T05:25:20.246Z,1.20
2019-01-15T05:27:52.095Z,1.22
2019-01-15T05:30:27.322Z,1.25
2019-01-15T05:32:59.720Z,1.22
2019-01-15T05:35:31.814Z,1.20
2019-01-15T05:38:03.589Z,1.23
2019-01-15T05:40:35.997Z,1.24
2019-01-15T05:43:08.329Z,1.24
2019-01-15T05:45:43.625Z,1.29
2019-01-15T05:48:26.320Z,1.25
2019-01-15T05:51:17.490Z,1.22
2019-01-15T05:53:49.617Z,1.22
2019-01-15T05:56:21.435Z,1.25
2019-01-15T05:58:53.802Z,1.23
2019-01-15T06:01:26.136Z,1.23
2019-01-15T06:03:58.447Z,1.19
2019-01-15T06:06:30.774Z,1.20
2019-01-15T06:09:03.634Z,1.24
2019-01-15T06:11:35.664Z,1.22
2019-01-15T06:14:07.973Z,1.21
2019-01-15T06:16:40.290Z,1.35
2019-01-15T06:19:12.627Z,1.25
2019-01-15T06:21:44.966Z,1.30
2019-01-15T06:24:17.305Z,1.24
2019-01-15T06:26:49.903Z,1.21
2019-01-15T06:29:22.203Z,1.22
2019-01-15T06:31:54.580Z,1.24
2019-01-15T06:34:26.940Z,1.23
2019-01-15T06:36:59.443Z,1.22
2019-01-15T06:39:31.761Z,1.22
2019-01-15T06:42:04.496Z,1.24
2019-01-15T06:44:36.360Z,1.27
2019-01-15T06:47:08.683Z,1.23
2019-01-15T06:49:41.130Z,1.25
2019-01-15T06:52:13.572Z,1.25
2019-01-15T06:54:45.946Z,1.29
2019-01-15T06:57:18.275Z,1.31
2019-01-15T06:59:50.593Z,1.26
2019-01-15T07:02:23.274Z,1.21
2019-01-15T07:04:55.382Z,1.17
2019-01-15T07:07:27.406Z,1.21
2019-01-15T07:09:59.142Z,1.18
2019-01-15T07:12:30.997Z,1.25
2019-01-15T07:15:03.512Z,1.26
2019-01-15T07:17:35.903Z,1.25
2019-01-15T07:20:13.842Z,1.29
2019-01-15T07:22:48.221Z,1.29
2019-01-15T07:25:21.679Z,1.24
2019-01-15T07:27:53.742Z,1.33
2019-01-15T07:30:45.796Z,1.33
2019-01-15T07:33:18.294Z,1.33
2019-01-15T07:35:50.322Z,1.28
2019-01-15T07:38:22.089Z,1.29
2019-01-15T07:40:53.884Z,1.28
2019-01-15T07:43:25.653Z,1.26
2019-01-15T07:45:57.953Z,1.34
2019-01-15T07:48:30.285Z,1.35
2019-01-15T07:51:03.024Z,1.33
2019-01-15T07:53:35.183Z,1.33
2019-01-15T07:56:06.899Z,1.34
2019-01-15T07:58:38.655Z,1.38
2019-01-15T08:01:11.233Z,1.45
2019-01-15T08:03:43.550Z,1.38
2019-01-15T08:06:16.175Z,1.35
2019-01-15T08:08:48.547Z,1.38
2019-01-15T08:11:20.895Z,1.54
2019-01-15T08:13:53.255Z,1.57
2019-01-15T08:16:25.850Z,1.58
2019-01-15T08:18:58.172Z,1.56
2019-01-15T08:21:30.548Z,1.62
2019-01-15T08:24:02.850Z,1.67
2019-01-15T08:26:35.137Z,1.70
2019-01-15T08:29:07.568Z,1.70
2019-01-15T08:31:43.338Z,1.76
2019-01-15T08:34:15.889Z,1.73
2019-01-15T08:36:48.179Z,1.82
2019-01-15T08:39:20.487Z,1.84
2019-01-15T08:41:53.576Z,1.83
2019-01-15T08:44:26.186Z,1.91
2019-01-15T08:46:58.526Z,2.03
2019-01-15T08:49:30.278Z,2.11
2019-01-15T08:52:02.573Z,2.22
2019-01-15T08:54:34.908Z,2.18
2019-01-15T08:57:07.310Z,2.22
2019-01-15T08:59:39.621Z,2.24
2019-01-15T09:02:11.999Z,2.25
2019-01-15T09:04:44.313Z,2.36
2019-01-15T09:07:16.614Z,2.42
2019-01-15T09:09:49.000Z,2.42
2019-01-15T09:12:21.296Z,2.45
2019-01-15T09:14:53.827Z,2.43
2019-01-15T09:17:26.133Z,2.47
2019-01-15T09:19:58.454Z,2.54
2019-01-15T09:22:30.745Z,2.63
2019-01-15T09:25:03.167Z,2.66
2019-01-15T09:27:35.472Z,2.62
2019-01-15T09:30:11.799Z,2.70
2019-01-15T09:32:44.189Z,2.69
2019-01-15T09:35:16.549Z,2.72
2019-01-15T09:37:50.617Z,2.81
2019-01-15T09:40:25.048Z,2.81
2019-01-15T09:42:57.336Z,2.80
2019-01-15T09:45:29.657Z,2.88
2019-01-15T09:48:06.552Z,2.92
2019-01-15T09:50:38.863Z,2.99
2019-01-15T09:53:11.240Z,3.01
2019-01-15T09:55:43.654Z,3.05
2019-01-15T09:58:16.013Z,3.10
2019-01-15T10:00:48.405Z,3.14
2019-01-15T10:03:20.695Z,3.18
2019-01-15T10:05:53.117Z,3.25
2019-01-15T10:08:25.413Z,3.30
2019-01-15T10:10:57.839Z,3.27
2019-01-15T10:13:30.174Z,3.29
2019-01-15T10:16:02.565Z,3.35
2019-01-15T10:18:34.960Z,3.36
2019-01-15T10:21:07.262Z,3.33
2019-01-15T10:23:39.594Z,3.30
2019-01-15T10:26:11.886Z,3.30
2019-01-15T10:28:44.198Z,3.33
2019-01-15T10:32:44.221Z,3.32
2019-01-15T10:36:03.039Z,3.34
2019-01-15T10:38:35.444Z,3.36
2019-01-15T10:41:07.795Z,3.36
2019-01-15T10:43:40.101Z,3.42
2019-01-15T10:46:12.522Z,3.35
2019-01-15T10:48:44.871Z,3.39
2019-01-15T10:51:17.486Z,3.43
2019-01-15T10:53:49.369Z,3.39
2019-01-15T10:56:21.825Z,3.43
2019-01-15T10:58:54.175Z,3.43
2019-01-15T11:01:26.490Z,3.47
2019-01-15T11:03:59.785Z,3.60
2019-01-15T11:06:31.973Z,3.65
2019-01-15T11:09:07.291Z,3.68
2019-01-15T11:11:39.623Z,3.77
2019-01-15T11:14:16.094Z,3.89
2019-01-15T11:16:48.451Z,3.97
2019-01-15T11:19:20.754Z,4.15
2019-01-15T11:21:53.167Z,4.16
2019-01-15T11:24:25.553Z,4.34
2019-01-15T11:26:58.014Z,4.31
2019-01-15T11:29:30.314Z,4.30
2019-01-15T11:32:02.790Z,4.47
2019-01-15T11:34:35.074Z,4.53
2019-01-15T11:37:07.490Z,4.67
2019-01-15T11:39:39.815Z,4.43
2019-01-15T11:42:12.128Z,4.44
2019-01-15T11:44:44.433Z,4.72
2019-01-15T11:47:16.776Z,4.83
2019-01-15T11:49:49.201Z,4.74
2019-01-15T11:52:21.621Z,5.05
2019-01-15T11:54:54.049Z,4.94
2019-01-15T11:57:26.423Z,5.13
2019-01-15T11:59:58.765Z,5.10
2019-01-15T12:02:50.049Z,5.19
2019-01-15T12:05:44.344Z,5.20
2019-01-15T12:08:38.581Z,5.33
2019-01-15T12:11:31.407Z,5.04
2019-01-15T12:14:31.669Z,5.13
2019-01-15T12:17:21.518Z,5.11
2019-01-15T12:20:11.304Z,5.17
2019-01-15T12:23:17.937Z,5.19
2019-01-15T12:26:08.003Z,5.14
2019-01-15T12:28:59.522Z,4.60
2019-01-15T12:31:49.538Z,5.04
2019-01-15T12:34:33.991Z,4.59
2019-01-15T12:37:24.147Z,5.02
2019-01-15T12:40:13.041Z,4.97
2019-01-15T12:43:16.251Z,4.77
2019-01-15T12:46:12.379Z,4.95
2019-01-15T12:49:09.384Z,4.60
2019-01-15T12:51:52.541Z,4.97
2019-01-15T12:54:49.497Z,4.84
2019-01-15T12:57:34.742Z,4.94
2019-01-15T13:00:32.650Z,4.85
2019-01-15T13:03:22.563Z,4.60
2019-01-15T13:06:17.402Z,4.76
2019-01-15T13:09:07.226Z,4.89
2019-01-15T13:12:10.452Z,4.84
2019-01-15T13:15:07.713Z,4.90
2019-01-15T13:17:57.336Z,4.78
2019-01-15T13:21:06.620Z,4.80
2019-01-15T13:24:03.625Z,4.91
2019-01-15T13:26:54.827Z,4.84
2019-01-15T13:29:49.224Z,4.73
2019-01-15T13:32:42.160Z,4.84
2019-01-15T13:35:45.882Z,4.80
2019-01-15T13:38:31.343Z,4.81
2019-01-15T13:41:31.681Z,4.80
2019-01-15T13:44:28.990Z,4.87
2019-01-15T13:47:17.391Z,4.88
2019-01-15T13:50:10.556Z,4.75
2019-01-15T13:53:16.448Z,4.68
2019-01-15T13:56:06.321Z,4.80
2019-01-15T13:58:56.286Z,4.79
2019-01-15T14:01:59.839Z,4.75
2019-01-15T14:04:40.018Z,4.68
2019-01-15T14:07:34.896Z,4.63
2019-01-15T14:10:28.541Z,4.72
2019-01-15T14:13:18.066Z,4.76
2019-01-15T14:16:16.676Z,4.77
2019-01-15T14:19:06.775Z,4.75
2019-01-15T14:22:01.019Z,4.72
2019-01-15T14:24:58.311Z,4.78
2019-01-15T14:27:56.868Z,4.78
2019-01-15T14:31:03.277Z,4.81
2019-01-15T14:33:53.086Z,4.75
2019-01-15T14:36:50.180Z,4.73
2019-01-15T14:39:41.358Z,4.67
2019-01-15T14:42:36.881Z,4.75
2019-01-15T14:45:19.944Z,4.74
2019-01-15T14:48:10.051Z,4.75
2019-01-15T14:50:59.991Z,4.69
2019-01-15T14:53:51.149Z,4.64
2019-01-15T14:56:41.191Z,4.68
2019-01-15T14:59:31.169Z,4.74
2019-01-15T15:02:28.868Z,4.66
2019-01-15T15:05:18.870Z,4.71
2019-01-15T15:08:08.656Z,4.64
2019-01-15T15:10:58.707Z,4.65
2019-01-15T15:13:48.885Z,4.66
2019-01-15T15:16:38.802Z,4.58
2019-01-15T15:19:29.985Z,4.65
2019-01-15T15:22:23.928Z,4.56
2019-01-15T15:25:12.898Z,4.58
2019-01-15T15:28:03.035Z,4.52
2019-01-15T15:30:53.058Z,4.53
2019-01-15T15:34:02.769Z,4.54
2019-01-15T15:36:50.550Z,4.52
2019-01-15T15:39:51.047Z,4.49
2019-01-15T15:42:41.881Z,4.50
2019-01-15T15:45:42.516Z,4.46
2019-01-15T15:48:31.167Z,4.43
2019-01-15T15:51:40.711Z,4.42
2019-01-15T15:54:31.087Z,4.38
2019-01-15T15:57:22.681Z,4.36
2019-01-15T16:00:24.312Z,4.37
2019-01-15T16:03:18.294Z,4.36
2019-01-15T16:06:17.104Z,4.33
2019-01-15T16:09:09.021Z,4.33
2019-01-15T16:12:06.194Z,4.34
2019-01-15T16:14:56.376Z,4.33
2019-01-15T16:17:47.537Z,4.31
2019-01-15T16:20:28.526Z,4.27
2019-01-15T16:23:18.611Z,4.27
2019-01-15T16:26:04.720Z,4.26
2019-01-15T16:28:54.949Z,4.27
2019-01-15T16:31:46.140Z,4.25
2019-01-15T16:34:49.437Z,4.22
2019-01-15T16:37:53.290Z,4.24
2019-01-15T16:40:43.197Z,4.25
2019-01-15T16:43:37.442Z,4.21
2019-01-15T16:46:26.401Z,4.20
2019-01-15T16:49:16.517Z,4.21
2019-01-15T16:52:16.046Z,4.19
2019-01-15T16:55:07.272Z,4.17
2019-01-15T16:57:58.452Z,4.19
2019-01-15T17:00:43.244Z,4.19
2019-01-15T17:03:37.351Z,4.16
2019-01-15T17:06:22.101Z,4.24
2019-01-15T17:09:27.754Z,4.23
2019-01-15T17:12:12.693Z,4.19
2019-01-15T17:15:02.874Z,4.18
2019-01-15T17:17:48.265Z,4.17
2019-01-15T17:20:48.471Z,4.15
2019-01-15T17:23:45.958Z,4.15
2019-01-15T17:26:37.170Z,4.17
2019-01-15T17:29:21.206Z,4.17
2019-01-15T17:32:11.201Z,4.14
2019-01-15T17:35:06.914Z,4.16
2019-01-15T17:38:04.317Z,4.14
2019-01-15T17:40:51.619Z,4.16
2019-01-15T17:43:32.546Z,4.17
2019-01-15T17:46:26.808Z,4.14
2019-01-15T17:49:36.347Z,4.15
2019-01-15T17:52:26.277Z,4.14
2019-01-15T17:55:09.584Z,4.11
2019-01-15T17:57:59.388Z,4.11
2019-01-15T18:00:53.488Z,4.18
2019-01-15T18:03:42.288Z,4.21
2019-01-15T18:06:42.515Z,4.22
2019-01-15T18:09:52.131Z,4.24
2019-01-15T18:13:01.606Z,4.21
2019-01-15T18:15:52.818Z,4.19
2019-01-15T18:18:53.405Z,4.20
2019-01-15T18:21:53.868Z,4.21
2019-01-15T18:24:54.636Z,4.19
2019-01-15T18:27:57.927Z,4.23
2019-01-15T18:30:54.689Z,4.21
2019-01-15T18:33:55.431Z,4.22
2019-01-15T18:36:45.885Z,4.19
2019-01-15T18:39:37.532Z,4.22
2019-01-15T18:42:31.733Z,4.21
2019-01-15T18:45:21.442Z,4.20
2019-01-15T18:48:24.296Z,4.22
2019-01-15T18:51:18.229Z,4.21
2019-01-15T18:54:08.515Z,4.21
2019-01-15T18:57:08.879Z,4.20
2019-01-15T18:59:57.821Z,4.23
2019-01-15T19:02:45.370Z,4.18
2019-01-15T19:05:42.711Z,4.17
2019-01-15T19:08:32.999Z,4.22
2019-01-15T19:11:24.210Z,4.24
2019-01-15T19:14:24.730Z,4.20
2019-01-15T19:17:15.145Z,4.17
2019-01-15T19:20:15.365Z,4.21
2019-01-15T19:23:15.911Z,4.25
2019-01-15T19:26:03.499Z,4.20
2019-01-15T19:28:47.474Z,4.21
2019-01-15T19:31:38.663Z,4.21
2019-01-15T19:34:36.041Z,4.16
2019-01-15T19:37:27.238Z,4.14
2019-01-15T19:40:18.419Z,4.16
2019-01-15T19:43:08.438Z,4.17
2019-01-15T19:45:58.511Z,4.21
2019-01-15T19:48:56.145Z,4.14
2019-01-15T19:51:51.671Z,4.18
2019-01-15T19:54:49.250Z,4.14
2019-01-15T19:57:40.492Z,4.14
2019-01-15T20:00:36.168Z,4.20
2019-01-15T20:03:30.680Z,4.14
2019-01-15T20:06:16.137Z,4.11
2019-01-15T20:09:19.346Z,4.14
2019-01-15T20:12:22.925Z,4.11
2019-01-15T20:15:13.879Z,4.14
2019-01-15T20:18:05.071Z,4.19
2019-01-15T20:20:59.084Z,4.16
2019-01-15T20:23:48.913Z,4.16
2019-01-15T20:26:56.540Z,4.14
2019-01-15T20:29:46.391Z,4.18
2019-01-15T20:32:50.352Z,4.16
2019-01-15T20:35:48.950Z,4.14
2019-01-15T20:38:42.518Z,4.18
2019-01-15T20:41:23.802Z,4.11
2019-01-15T20:44:13.691Z,4.14
2019-01-15T20:47:03.428Z,4.14
2019-01-15T20:50:06.467Z,4.13
2019-01-15T20:53:03.814Z,4.12
2019-01-15T20:56:03.945Z,4.10
2019-01-15T20:58:55.135Z,4.14
2019-01-15T21:01:49.051Z,4.16
2019-01-15T21:04:38.548Z,4.12
2019-01-15T21:07:29.511Z,4.14
2019-01-15T21:10:11.300Z,4.19
2019-01-15T21:12:56.499Z,4.15
2019-01-15T21:15:46.683Z,4.13
2019-01-15T21:18:43.678Z,4.13
2019-01-15T21:21:41.171Z,4.14
2019-01-15T21:24:34.072Z,4.13
2019-01-15T21:27:24.291Z,4.10
2019-01-15T21:30:28.118Z,4.14
2019-01-15T21:33:10.315Z,4.14
2019-01-15T21:36:00.431Z,4.16
2019-01-15T21:38:51.650Z,4.16
2019-01-15T21:41:40.919Z,4.16
2019-01-15T21:44:35.103Z,4.15
2019-01-15T21:47:25.713Z,4.19
2019-01-15T21:50:14.079Z,4.14
2019-01-15T21:53:07.067Z,4.18
2019-01-15T21:56:01.075Z,4.20
2019-01-15T21:58:42.715Z,4.15
2019-01-15T22:01:32.588Z,4.14
2019-01-15T22:04:26.842Z,4.14
2019-01-15T22:07:24.265Z,4.16
2019-01-15T22:10:19.777Z,4.14
2019-01-15T22:13:09.739Z,4.16
2019-01-15T22:15:59.236Z,4.14
2019-01-15T22:18:50.452Z,4.11
2019-01-15T22:21:40.299Z,4.17
2019-01-15T22:24:30.309Z,4.14
2019-01-15T22:27:09.676Z,4.17
2019-01-15T22:29:59.824Z,4.18
2019-01-15T22:32:49.836Z,4.16
2019-01-15T22:35:39.631Z,4.11
2019-01-15T22:38:29.446Z,4.11
2019-01-15T22:41:12.297Z,4.11
2019-01-15T22:44:15.283Z,4.08
2019-01-15T22:47:09.672Z,4.18
2019-01-15T22:49:59.785Z,4.11
2019-01-15T22:52:54.150Z,4.12
2019-01-15T22:55:44.015Z,4.11
2019-01-15T22:58:24.711Z,4.12
2019-01-15T23:01:15.956Z,4.12
2019-01-15T23:07:14.900Z,4.12
2019-01-15T23:10:24.514Z,4.12
2019-01-15T23:13:18.644Z,4.09
2019-01-15T23:16:02.675Z,4.08
2019-01-15T23:18:56.629Z,4.08
2019-01-15T23:21:51.729Z,4.03
2019-01-15T23:24:41.643Z,4.06
2019-01-15T23:27:44.827Z,4.05
2019-01-15T23:30:43.118Z,4.04
2019-01-15T23:33:49.914Z,4.03
2019-01-15T23:36:39.987Z,4.04
2019-01-15T23:39:26.098Z,4.05
2019-01-15T23:42:17.273Z,4.03
2019-01-15T23:45:07.491Z,4.05
2019-01-15T23:47:50.708Z,4.05
2019-01-15T23:50:33.827Z,4.05
2019-01-15T23:53:23.429Z,4.11
2019-01-15T23:56:13.587Z,4.08
2019-01-15T23:59:03.235Z,4.05
